sensor_id;sensor_type;location;lat;lon;timestamp;pressure;altitude;pressure_sealevel;temperature;humidity
76074;BME280;64776;42.636;24.358;2023-04-29T00:02:29;90209.34;;;0.98;77.82
76074;BME280;64776;42.636;24.358;2023-04-29T00:05:30;90206.16;;;0.90;77.75
76074;BME280;64776;42.636;24.358;2023-04-29T00:08:31;90212.72;;;0.82;77.99
76074;BME280;64776;42.636;24.358;2023-04-29T00:11:33;90215.66;;;0.68;78.62
76074;BME280;64776;42.636;24.358;2023-04-29T00:14:36;90220.59;;;0.66;78.22
76074;BME280;64776;42.636;24.358;2023-04-29T00:17:37;90215.34;;;0.66;78.37
76074;BME280;64776;42.636;24.358;2023-04-29T00:20:38;90212.72;;;0.66;78.70
76074;BME280;64776;42.636;24.358;2023-04-29T00:23:39;90215.59;;;0.71;78.17
76074;BME280;64776;42.636;24.358;2023-04-29T00:26:41;90218.38;;;0.80;78.34
76074;BME280;64776;42.636;24.358;2023-04-29T00:29:42;90216.47;;;0.81;77.80
76074;BME280;64776;42.636;24.358;2023-04-29T00:32:42;90213.84;;;0.65;77.26
76074;BME280;64776;42.636;24.358;2023-04-29T00:35:43;90206.63;;;0.69;77.61
76074;BME280;64776;42.636;24.358;2023-04-29T00:38:44;90213.09;;;0.64;77.56
76074;BME280;64776;42.636;24.358;2023-04-29T00:41:47;90213.19;;;0.61;77.60
76074;BME280;64776;42.636;24.358;2023-04-29T00:44:47;90202.69;;;0.61;78.01
76074;BME280;64776;42.636;24.358;2023-04-29T00:47:48;90205.44;;;0.54;77.79
76074;BME280;64776;42.636;24.358;2023-04-29T00:50:49;90194.94;;;0.54;77.87
76074;BME280;64776;42.636;24.358;2023-04-29T00:53:50;90191.84;;;0.43;78.71
76074;BME280;64776;42.636;24.358;2023-04-29T00:56:53;90192.84;;;0.29;79.38
76074;BME280;64776;42.636;24.358;2023-04-29T00:59:54;90177.84;;;0.30;79.57
76074;BME280;64776;42.636;24.358;2023-04-29T01:02:55;90184.97;;;0.29;79.30
76074;BME280;64776;42.636;24.358;2023-04-29T01:06:04;90181.84;;;0.18;79.83
76074;BME280;64776;42.636;24.358;2023-04-29T01:09:28;90174.31;;;0.20;79.35
76074;BME280;64776;42.636;24.358;2023-04-29T01:12:41;90181.53;;;0.16;80.16
76074;BME280;64776;42.636;24.358;2023-04-29T01:15:48;90174.38;;;0.17;79.87
76074;BME280;64776;42.636;24.358;2023-04-29T01:18:56;90178.50;;;0.18;79.97
76074;BME280;64776;42.636;24.358;2023-04-29T01:21:57;90181.16;;;-0.22;81.33
76074;BME280;64776;42.636;24.358;2023-04-29T01:24:59;90177.91;;;-0.10;81.07
76074;BME280;64776;42.636;24.358;2023-04-29T01:28:07;90173.19;;;0.02;80.44
76074;BME280;64776;42.636;24.358;2023-04-29T01:31:14;90173.66;;;-0.04;80.47
76074;BME280;64776;42.636;24.358;2023-04-29T01:34:22;90176.34;;;0.13;80.03
76074;BME280;64776;42.636;24.358;2023-04-29T01:37:36;90171.94;;;0.26;79.16
76074;BME280;64776;42.636;24.358;2023-04-29T01:40:44;90172.91;;;0.16;78.70
76074;BME280;64776;42.636;24.358;2023-04-29T01:43:50;90170.69;;;0.14;79.39
76074;BME280;64776;42.636;24.358;2023-04-29T01:46:52;90163.88;;;0.17;79.54
76074;BME280;64776;42.636;24.358;2023-04-29T01:49:53;90164.72;;;0.14;79.23
76074;BME280;64776;42.636;24.358;2023-04-29T01:52:54;90160.25;;;0.11;79.31
76074;BME280;64776;42.636;24.358;2023-04-29T01:56:00;90167.78;;;0.09;79.02
76074;BME280;64776;42.636;24.358;2023-04-29T01:59:01;90161.88;;;0.05;78.89
76074;BME280;64776;42.636;24.358;2023-04-29T02:02:02;90161.56;;;0.03;78.81
76074;BME280;64776;42.636;24.358;2023-04-29T02:05:02;90159.00;;;-0.01;78.72
76074;BME280;64776;42.636;24.358;2023-04-29T02:08:04;90159.09;;;-0.05;78.69
76074;BME280;64776;42.636;24.358;2023-04-29T02:11:06;90155.31;;;-0.04;79.39
76074;BME280;64776;42.636;24.358;2023-04-29T02:14:07;90154.31;;;-0.10;79.81
76074;BME280;64776;42.636;24.358;2023-04-29T02:17:08;90162.00;;;-0.19;79.44
76074;BME280;64776;42.636;24.358;2023-04-29T02:20:09;90157.09;;;-0.17;79.84
76074;BME280;64776;42.636;24.358;2023-04-29T02:23:10;90162.78;;;-0.22;80.13
76074;BME280;64776;42.636;24.358;2023-04-29T02:26:12;90159.38;;;-0.19;80.66
76074;BME280;64776;42.636;24.358;2023-04-29T02:29:13;90155.22;;;-0.36;80.53
76074;BME280;64776;42.636;24.358;2023-04-29T02:32:14;90152.78;;;-0.27;80.45
76074;BME280;64776;42.636;24.358;2023-04-29T02:35:15;90147.69;;;-0.34;79.59
76074;BME280;64776;42.636;24.358;2023-04-29T02:38:15;90152.72;;;-0.23;80.43
76074;BME280;64776;42.636;24.358;2023-04-29T02:41:18;90144.44;;;-0.22;79.55
76074;BME280;64776;42.636;24.358;2023-04-29T02:44:18;90148.56;;;-0.21;79.19
76074;BME280;64776;42.636;24.358;2023-04-29T02:47:19;90151.09;;;-0.17;79.77
76074;BME280;64776;42.636;24.358;2023-04-29T02:50:20;90148.19;;;-0.23;79.79
76074;BME280;64776;42.636;24.358;2023-04-29T02:53:21;90149.22;;;-0.36;79.54
76074;BME280;64776;42.636;24.358;2023-04-29T02:56:23;90153.78;;;-0.40;79.97
76074;BME280;64776;42.636;24.358;2023-04-29T02:59:24;90153.78;;;-0.40;79.45
76074;BME280;64776;42.636;24.358;2023-04-29T03:02:25;90149.41;;;-0.47;80.31
76074;BME280;64776;42.636;24.358;2023-04-29T03:05:26;90151.69;;;-0.49;81.07
76074;BME280;64776;42.636;24.358;2023-04-29T03:08:27;90144.56;;;-0.68;81.06
76074;BME280;64776;42.636;24.358;2023-04-29T03:11:29;90157.03;;;-0.52;80.93
76074;BME280;64776;42.636;24.358;2023-04-29T03:14:30;90164.94;;;-0.36;80.82
76074;BME280;64776;42.636;24.358;2023-04-29T03:17:30;90163.41;;;-0.34;80.04
76074;BME280;64776;42.636;24.358;2023-04-29T03:20:31;90163.75;;;-0.32;80.40
76074;BME280;64776;42.636;24.358;2023-04-29T03:23:32;90160.28;;;-0.29;79.78
76074;BME280;64776;42.636;24.358;2023-04-29T03:26:34;90176.34;;;-0.27;79.16
76074;BME280;64776;42.636;24.358;2023-04-29T03:29:35;90179.59;;;-0.19;79.35
76074;BME280;64776;42.636;24.358;2023-04-29T03:32:36;90181.16;;;-0.22;79.56
76074;BME280;64776;42.636;24.358;2023-04-29T03:35:37;90178.97;;;-0.27;80.23
76074;BME280;64776;42.636;24.358;2023-04-29T03:38:38;90176.66;;;-0.21;80.18
76074;BME280;64776;42.636;24.358;2023-04-29T03:41:40;90182.16;;;-0.16;80.07
76074;BME280;64776;42.636;24.358;2023-04-29T03:44:40;90190.44;;;-0.17;79.49
76074;BME280;64776;42.636;24.358;2023-04-29T03:47:41;90185.44;;;-0.12;79.53
76074;BME280;64776;42.636;24.358;2023-04-29T03:50:42;90195.25;;;-0.16;79.46
76074;BME280;64776;42.636;24.358;2023-04-29T03:53:43;90184.91;;;-0.23;79.87
76074;BME280;64776;42.636;24.358;2023-04-29T03:56:45;90188.22;;;-0.19;80.37
76074;BME280;64776;42.636;24.358;2023-04-29T03:59:46;90188.41;;;-0.10;80.60
76074;BME280;64776;42.636;24.358;2023-04-29T04:02:47;90181.53;;;-0.04;80.99
76074;BME280;64776;42.636;24.358;2023-04-29T04:05:48;90180.53;;;0.10;81.00
76074;BME280;64776;42.636;24.358;2023-04-29T04:08:48;90181.91;;;0.15;80.80
76074;BME280;64776;42.636;24.358;2023-04-29T04:11:51;90178.50;;;0.18;80.62
76074;BME280;64776;42.636;24.358;2023-04-29T04:14:51;90176.44;;;0.25;80.62
76074;BME280;64776;42.636;24.358;2023-04-29T04:17:52;90187.56;;;0.33;80.83
76074;BME280;64776;42.636;24.358;2023-04-29T04:20:53;90188.47;;;0.42;80.02
76074;BME280;64776;42.636;24.358;2023-04-29T04:23:54;90182.78;;;0.44;80.21
76074;BME280;64776;42.636;24.358;2023-04-29T04:26:56;90193.16;;;0.51;79.95
76074;BME280;64776;42.636;24.358;2023-04-29T04:29:57;90191.84;;;0.59;80.35
76074;BME280;64776;42.636;24.358;2023-04-29T04:32:57;90194.34;;;0.66;79.81
76074;BME280;64776;42.636;24.358;2023-04-29T04:35:58;90197.53;;;0.73;79.87
76074;BME280;64776;42.636;24.358;2023-04-29T04:38:59;90198.09;;;0.81;79.89
76074;BME280;64776;42.636;24.358;2023-04-29T04:42:01;90190.56;;;0.83;79.28
76074;BME280;64776;42.636;24.358;2023-04-29T04:45:04;90191.53;;;0.89;79.83
76074;BME280;64776;42.636;24.358;2023-04-29T04:48:05;90187.03;;;0.90;79.97
76074;BME280;64776;42.636;24.358;2023-04-29T04:51:11;90184.00;;;0.91;79.50
76074;BME280;64776;42.636;24.358;2023-04-29T04:54:12;90178.25;;;0.96;79.57
76074;BME280;64776;42.636;24.358;2023-04-29T04:57:15;90181.44;;;0.88;79.21
76074;BME280;64776;42.636;24.358;2023-04-29T05:00:16;90172.75;;;0.91;80.19
76074;BME280;64776;42.636;24.358;2023-04-29T05:03:17;90170.72;;;0.82;80.70
76074;BME280;64776;42.636;24.358;2023-04-29T05:06:17;90160.94;;;0.99;79.93
76074;BME280;64776;42.636;24.358;2023-04-29T05:09:18;90169.63;;;1.12;80.73
76074;BME280;64776;42.636;24.358;2023-04-29T05:12:20;90172.16;;;1.31;80.06
76074;BME280;64776;42.636;24.358;2023-04-29T05:15:21;90172.84;;;1.48;80.47
76074;BME280;64776;42.636;24.358;2023-04-29T05:18:22;90169.66;;;1.69;80.34
76074;BME280;64776;42.636;24.358;2023-04-29T05:21:23;90153.63;;;1.92;79.93
76074;BME280;64776;42.636;24.358;2023-04-29T05:24:24;90158.09;;;2.08;79.22
76074;BME280;64776;42.636;24.358;2023-04-29T05:27:26;90157.59;;;2.25;79.36
76074;BME280;64776;42.636;24.358;2023-04-29T05:30:28;90155.75;;;2.51;79.08
76074;BME280;64776;42.636;24.358;2023-04-29T05:33:28;90148.38;;;2.71;78.28
76074;BME280;64776;42.636;24.358;2023-04-29T05:36:29;90144.66;;;2.94;77.76
76074;BME280;64776;42.636;24.358;2023-04-29T05:39:30;90141.03;;;3.13;77.06
76074;BME280;64776;42.636;24.358;2023-04-29T05:42:33;90140.56;;;3.40;77.08
76074;BME280;64776;42.636;24.358;2023-04-29T05:45:33;90141.84;;;3.57;76.92
76074;BME280;64776;42.636;24.358;2023-04-29T05:48:34;90132.31;;;3.93;76.42
76074;BME280;64776;42.636;24.358;2023-04-29T05:51:35;90133.97;;;4.00;76.08
76074;BME280;64776;42.636;24.358;2023-04-29T05:54:36;90132.97;;;4.28;75.23
76074;BME280;64776;42.636;24.358;2023-04-29T05:57:38;90137.94;;;4.26;74.30
76074;BME280;64776;42.636;24.358;2023-04-29T06:00:39;90143.91;;;4.48;75.10
76074;BME280;64776;42.636;24.358;2023-04-29T06:03:40;90141.72;;;4.86;74.65
76074;BME280;64776;42.636;24.358;2023-04-29T06:06:40;90127.91;;;5.31;73.18
76074;BME280;64776;42.636;24.358;2023-04-29T06:09:41;90126.75;;;5.59;72.21
76074;BME280;64776;42.636;24.358;2023-04-29T06:12:43;90126.75;;;5.77;70.92
76074;BME280;64776;42.636;24.358;2023-04-29T06:15:44;90123.97;;;5.99;70.92
76074;BME280;64776;42.636;24.358;2023-04-29T06:18:45;90116.88;;;6.14;70.78
76074;BME280;64776;42.636;24.358;2023-04-29T06:21:46;90114.34;;;6.38;70.00
76074;BME280;64776;42.636;24.358;2023-04-29T06:24:47;90114.56;;;6.58;69.08
76074;BME280;64776;42.636;24.358;2023-04-29T06:27:49;90120.19;;;6.93;67.17
76074;BME280;64776;42.636;24.358;2023-04-29T06:30:50;90118.47;;;7.13;65.99
76074;BME280;64776;42.636;24.358;2023-04-29T06:33:51;90107.03;;;7.31;64.76
76074;BME280;64776;42.636;24.358;2023-04-29T06:36:52;90114.00;;;7.52;63.14
76074;BME280;64776;42.636;24.358;2023-04-29T06:39:53;90113.22;;;7.75;64.57
76074;BME280;64776;42.636;24.358;2023-04-29T06:42:55;90114.84;;;7.96;62.88
76074;BME280;64776;42.636;24.358;2023-04-29T06:45:56;90111.00;;;7.97;60.84
76074;BME280;64776;42.636;24.358;2023-04-29T06:48:57;90111.22;;;8.23;61.69
76074;BME280;64776;42.636;24.358;2023-04-29T06:51:57;90088.22;;;8.35;61.19
76074;BME280;64776;42.636;24.358;2023-04-29T06:54:58;90093.56;;;8.49;61.70
76074;BME280;64776;42.636;24.358;2023-04-29T06:58:01;90087.69;;;8.60;59.12
76074;BME280;64776;42.636;24.358;2023-04-29T07:01:01;90094.06;;;8.82;59.53
76074;BME280;64776;42.636;24.358;2023-04-29T07:04:03;90099.28;;;9.06;59.37
76074;BME280;64776;42.636;24.358;2023-04-29T07:07:03;90093.25;;;9.26;58.37
76074;BME280;64776;42.636;24.358;2023-04-29T07:10:05;90100.28;;;9.43;58.62
76074;BME280;64776;42.636;24.358;2023-04-29T07:13:07;90096.28;;;9.53;56.97
76074;BME280;64776;42.636;24.358;2023-04-29T07:16:14;90086.09;;;9.52;56.92
76074;BME280;64776;42.636;24.358;2023-04-29T07:19:14;90091.22;;;9.75;55.33
76074;BME280;64776;42.636;24.358;2023-04-29T07:22:15;90092.41;;;9.95;56.04
76074;BME280;64776;42.636;24.358;2023-04-29T07:25:16;90097.09;;;10.20;55.46
76074;BME280;64776;42.636;24.358;2023-04-29T07:28:19;90093.09;;;10.35;52.93
76074;BME280;64776;42.636;24.358;2023-04-29T07:31:19;90088.34;;;10.45;52.85
76074;BME280;64776;42.636;24.358;2023-04-29T07:34:20;90085.25;;;10.52;52.83
76074;BME280;64776;42.636;24.358;2023-04-29T07:37:21;90081.78;;;10.72;53.23
76074;BME280;64776;42.636;24.358;2023-04-29T07:40:22;90080.44;;;10.82;51.55
76074;BME280;64776;42.636;24.358;2023-04-29T07:43:24;90079.59;;;10.70;53.65
76074;BME280;64776;42.636;24.358;2023-04-29T07:46:25;90078.13;;;11.00;52.20
76074;BME280;64776;42.636;24.358;2023-04-29T07:49:26;90085.28;;;11.14;52.16
76074;BME280;64776;42.636;24.358;2023-04-29T07:52:27;90082.84;;;10.80;48.59
76074;BME280;64776;42.636;24.358;2023-04-29T07:55:27;90077.19;;;10.72;51.48
76074;BME280;64776;42.636;24.358;2023-04-29T07:58:30;90080.31;;;10.96;50.73
76074;BME280;64776;42.636;24.358;2023-04-29T08:01:30;90082.53;;;11.09;49.82
76074;BME280;64776;42.636;24.358;2023-04-29T08:04:32;90078.97;;;11.17;52.18
76074;BME280;64776;42.636;24.358;2023-04-29T08:07:33;90081.50;;;11.32;51.91
76074;BME280;64776;42.636;24.358;2023-04-29T08:10:37;90074.66;;;11.25;50.88
76074;BME280;64776;42.636;24.358;2023-04-29T08:13:39;90075.16;;;11.29;52.01
76074;BME280;64776;42.636;24.358;2023-04-29T08:16:40;90070.53;;;11.67;49.99
76074;BME280;64776;42.636;24.358;2023-04-29T08:19:40;90080.34;;;11.92;50.34
76074;BME280;64776;42.636;24.358;2023-04-29T08:22:41;90070.41;;;11.92;50.23
76074;BME280;64776;42.636;24.358;2023-04-29T08:25:42;90072.72;;;12.38;49.14
76074;BME280;64776;42.636;24.358;2023-04-29T08:28:44;90071.53;;;12.61;48.72
76074;BME280;64776;42.636;24.358;2023-04-29T08:31:45;90071.03;;;12.46;48.76
76074;BME280;64776;42.636;24.358;2023-04-29T08:34:46;90070.59;;;12.75;49.77
76074;BME280;64776;42.636;24.358;2023-04-29T08:37:47;90069.59;;;12.78;48.66
76074;BME280;64776;42.636;24.358;2023-04-29T08:40:48;90068.38;;;12.90;47.35
76074;BME280;64776;42.636;24.358;2023-04-29T08:43:50;90066.19;;;13.39;49.03
76074;BME280;64776;42.636;24.358;2023-04-29T08:46:51;90067.13;;;13.63;46.19
76074;BME280;64776;42.636;24.358;2023-04-29T08:49:53;90061.00;;;13.74;46.63
76074;BME280;64776;42.636;24.358;2023-04-29T08:52:54;90061.75;;;13.63;47.37
76074;BME280;64776;42.636;24.358;2023-04-29T08:55:57;90059.69;;;13.92;46.31
76074;BME280;64776;42.636;24.358;2023-04-29T08:59:03;90049.22;;;13.94;47.70
76074;BME280;64776;42.636;24.358;2023-04-29T09:02:06;90054.94;;;14.25;48.36
76074;BME280;64776;42.636;24.358;2023-04-29T09:05:11;90055.56;;;14.48;47.07
76074;BME280;64776;42.636;24.358;2023-04-29T09:08:13;90042.16;;;14.83;45.21
76074;BME280;64776;42.636;24.358;2023-04-29T09:11:15;90032.94;;;15.03;45.32
76074;BME280;64776;42.636;24.358;2023-04-29T09:14:17;90037.19;;;14.93;41.52
76074;BME280;64776;42.636;24.358;2023-04-29T09:17:18;90028.59;;;15.00;39.73
76074;BME280;64776;42.636;24.358;2023-04-29T09:20:26;90030.75;;;14.72;41.91
76074;BME280;64776;42.636;24.358;2023-04-29T09:23:36;90016.66;;;14.95;44.81
76074;BME280;64776;42.636;24.358;2023-04-29T09:26:41;90019.09;;;15.23;42.04
76074;BME280;64776;42.636;24.358;2023-04-29T09:29:59;90021.56;;;15.21;42.24
76074;BME280;64776;42.636;24.358;2023-04-29T09:33:04;90017.41;;;14.90;41.88
76074;BME280;64776;42.636;24.358;2023-04-29T09:36:05;90012.09;;;15.14;42.21
76074;BME280;64776;42.636;24.358;2023-04-29T09:39:07;90011.44;;;15.08;42.18
76074;BME280;64776;42.636;24.358;2023-04-29T09:42:08;90005.13;;;15.00;40.79
76074;BME280;64776;42.636;24.358;2023-04-29T09:45:10;90000.75;;;15.27;42.80
76074;BME280;64776;42.636;24.358;2023-04-29T09:48:12;89987.88;;;15.87;41.40
76074;BME280;64776;42.636;24.358;2023-04-29T09:51:13;89986.47;;;16.42;43.25
76074;BME280;64776;42.636;24.358;2023-04-29T09:54:19;89989.66;;;16.40;38.25
76074;BME280;64776;42.636;24.358;2023-04-29T09:57:20;89976.78;;;16.14;42.50
76074;BME280;64776;42.636;24.358;2023-04-29T10:00:23;89993.59;;;15.35;41.86
76074;BME280;64776;42.636;24.358;2023-04-29T10:03:26;89993.28;;;14.85;42.87
76074;BME280;64776;42.636;24.358;2023-04-29T10:06:27;89995.31;;;15.08;43.42
76074;BME280;64776;42.636;24.358;2023-04-29T10:09:28;89989.31;;;15.21;42.84
76074;BME280;64776;42.636;24.358;2023-04-29T10:12:30;89990.31;;;15.42;42.02
76074;BME280;64776;42.636;24.358;2023-04-29T10:15:38;89984.63;;;15.51;44.53
76074;BME280;64776;42.636;24.358;2023-04-29T10:18:48;89981.66;;;16.16;41.13
76074;BME280;64776;42.636;24.358;2023-04-29T10:21:49;89976.69;;;16.39;40.17
76074;BME280;64776;42.636;24.358;2023-04-29T10:24:50;89982.03;;;16.25;41.87
76074;BME280;64776;42.636;24.358;2023-04-29T10:27:54;89971.19;;;16.50;41.60
76074;BME280;64776;42.636;24.358;2023-04-29T10:30:57;89968.56;;;16.63;41.51
76074;BME280;64776;42.636;24.358;2023-04-29T10:34:00;89959.50;;;16.92;41.80
76074;BME280;64776;42.636;24.358;2023-04-29T10:37:01;89957.09;;;17.33;39.75
76074;BME280;64776;42.636;24.358;2023-04-29T10:40:09;89957.91;;;17.15;37.96
76074;BME280;64776;42.636;24.358;2023-04-29T10:43:12;89958.72;;;16.28;36.80
76074;BME280;64776;42.636;24.358;2023-04-29T10:46:21;89962.88;;;17.11;38.02
76074;BME280;64776;42.636;24.358;2023-04-29T10:49:22;89962.34;;;17.57;38.03
76074;BME280;64776;42.636;24.358;2023-04-29T10:52:23;89950.97;;;17.85;32.11
76074;BME280;64776;42.636;24.358;2023-04-29T10:55:24;89929.78;;;18.15;31.44
76074;BME280;64776;42.636;24.358;2023-04-29T10:58:33;89933.56;;;17.73;31.75
76074;BME280;64776;42.636;24.358;2023-04-29T11:01:47;89941.31;;;18.03;30.10
76074;BME280;64776;42.636;24.358;2023-04-29T11:05:07;89947.72;;;17.08;28.79
76074;BME280;64776;42.636;24.358;2023-04-29T11:08:09;89941.94;;;17.04;29.34
76074;BME280;64776;42.636;24.358;2023-04-29T11:11:12;89949.00;;;17.20;29.88
76074;BME280;64776;42.636;24.358;2023-04-29T11:14:14;89941.13;;;17.22;29.29
76074;BME280;64776;42.636;24.358;2023-04-29T11:17:22;89939.47;;;17.32;27.82
76074;BME280;64776;42.636;24.358;2023-04-29T11:20:23;89947.16;;;17.80;30.12
76074;BME280;64776;42.636;24.358;2023-04-29T11:23:24;89937.28;;;17.83;29.68
76074;BME280;64776;42.636;24.358;2023-04-29T11:26:27;89935.16;;;17.55;29.47
76074;BME280;64776;42.636;24.358;2023-04-29T11:29:29;89935.72;;;17.22;29.79
76074;BME280;64776;42.636;24.358;2023-04-29T11:32:33;89933.16;;;16.85;27.16
76074;BME280;64776;42.636;24.358;2023-04-29T11:35:34;89932.97;;;16.83;27.10
76074;BME280;64776;42.636;24.358;2023-04-29T11:38:39;89928.69;;;17.58;27.99
76074;BME280;64776;42.636;24.358;2023-04-29T11:41:40;89924.94;;;17.74;26.69
76074;BME280;64776;42.636;24.358;2023-04-29T11:44:44;89917.47;;;17.28;26.94
76074;BME280;64776;42.636;24.358;2023-04-29T11:47:47;89922.03;;;17.46;27.74
76074;BME280;64776;42.636;24.358;2023-04-29T11:50:50;89925.69;;;17.62;27.75
76074;BME280;64776;42.636;24.358;2023-04-29T11:53:51;89923.50;;;17.86;26.98
76074;BME280;64776;42.636;24.358;2023-04-29T11:56:52;89923.34;;;18.52;27.69
76074;BME280;64776;42.636;24.358;2023-04-29T11:59:53;89912.38;;;18.24;27.83
76074;BME280;64776;42.636;24.358;2023-04-29T12:02:57;89910.97;;;18.10;27.67
76074;BME280;64776;42.636;24.358;2023-04-29T12:05:58;89914.53;;;18.05;27.97
76074;BME280;64776;42.636;24.358;2023-04-29T12:08:59;89906.63;;;18.07;26.01
76074;BME280;64776;42.636;24.358;2023-04-29T12:11:59;89907.75;;;18.45;26.47
76074;BME280;64776;42.636;24.358;2023-04-29T12:15:00;89901.13;;;17.99;25.92
76074;BME280;64776;42.636;24.358;2023-04-29T12:18:02;89907.25;;;18.46;25.30
76074;BME280;64776;42.636;24.358;2023-04-29T12:21:04;89899.44;;;17.62;27.73
76074;BME280;64776;42.636;24.358;2023-04-29T12:24:05;89892.44;;;18.60;28.12
76074;BME280;64776;42.636;24.358;2023-04-29T12:27:07;89898.63;;;18.68;25.19
76074;BME280;64776;42.636;24.358;2023-04-29T12:30:09;89892.91;;;18.38;25.21
76074;BME280;64776;42.636;24.358;2023-04-29T12:33:15;89894.97;;;17.78;27.15
76074;BME280;64776;42.636;24.358;2023-04-29T12:36:16;89888.47;;;17.94;26.58
76074;BME280;64776;42.636;24.358;2023-04-29T12:39:17;89887.59;;;18.12;26.74
76074;BME280;64776;42.636;24.358;2023-04-29T12:42:18;89899.75;;;18.06;26.24
76074;BME280;64776;42.636;24.358;2023-04-29T12:45:29;89887.53;;;18.59;29.24
76074;BME280;64776;42.636;24.358;2023-04-29T12:48:32;89891.31;;;18.56;27.40
76074;BME280;64776;42.636;24.358;2023-04-29T12:51:34;89882.72;;;18.44;28.11
76074;BME280;64776;42.636;24.358;2023-04-29T12:54:35;89886.50;;;19.11;27.69
76074;BME280;64776;42.636;24.358;2023-04-29T12:57:35;89869.16;;;18.78;25.10
76074;BME280;64776;42.636;24.358;2023-04-29T13:00:38;89867.16;;;18.99;26.41
76074;BME280;64776;42.636;24.358;2023-04-29T13:03:40;89863.69;;;19.19;25.54
76074;BME280;64776;42.636;24.358;2023-04-29T13:06:41;89859.25;;;18.81;26.25
76074;BME280;64776;42.636;24.358;2023-04-29T13:09:42;89847.75;;;19.72;25.64
76074;BME280;64776;42.636;24.358;2023-04-29T13:12:43;89862.28;;;18.36;24.93
76074;BME280;64776;42.636;24.358;2023-04-29T13:15:44;89866.75;;;17.27;26.33
76074;BME280;64776;42.636;24.358;2023-04-29T13:18:46;89863.34;;;17.39;25.82
76074;BME280;64776;42.636;24.358;2023-04-29T13:21:47;89861.78;;;17.18;27.75
76074;BME280;64776;42.636;24.358;2023-04-29T13:24:48;89864.69;;;16.93;28.08
76074;BME280;64776;42.636;24.358;2023-04-29T13:27:48;89859.91;;;17.39;28.49
76074;BME280;64776;42.636;24.358;2023-04-29T13:30:49;89858.56;;;17.06;28.32
76074;BME280;64776;42.636;24.358;2023-04-29T13:33:52;89863.63;;;16.96;28.96
76074;BME280;64776;42.636;24.358;2023-04-29T13:36:52;89856.88;;;16.90;29.79
76074;BME280;64776;42.636;24.358;2023-04-29T13:39:53;89865.69;;;17.17;29.03
76074;BME280;64776;42.636;24.358;2023-04-29T13:42:54;89866.03;;;17.26;30.12
76074;BME280;64776;42.636;24.358;2023-04-29T13:45:55;89854.69;;;16.62;30.15
76074;BME280;64776;42.636;24.358;2023-04-29T13:48:57;89857.50;;;16.38;32.17
76074;BME280;64776;42.636;24.358;2023-04-29T13:51:58;89847.50;;;16.20;32.42
76074;BME280;64776;42.636;24.358;2023-04-29T13:54:58;89849.44;;;15.88;32.10
76074;BME280;64776;42.636;24.358;2023-04-29T13:58:00;89846.94;;;16.08;32.65
76074;BME280;64776;42.636;24.358;2023-04-29T14:01:01;89852.06;;;15.75;31.76
76074;BME280;64776;42.636;24.358;2023-04-29T14:04:03;89863.63;;;15.51;33.71
76074;BME280;64776;42.636;24.358;2023-04-29T14:07:04;89856.53;;;15.54;33.15
76074;BME280;64776;42.636;24.358;2023-04-29T14:10:05;89863.88;;;15.29;33.09
76074;BME280;64776;42.636;24.358;2023-04-29T14:13:06;89860.88;;;15.14;33.21
76074;BME280;64776;42.636;24.358;2023-04-29T14:16:07;89866.97;;;15.14;33.45
76074;BME280;64776;42.636;24.358;2023-04-29T14:19:09;89864.91;;;15.02;32.86
76074;BME280;64776;42.636;24.358;2023-04-29T14:22:10;89858.06;;;15.01;33.84
76074;BME280;64776;42.636;24.358;2023-04-29T14:25:11;89866.38;;;15.03;34.19
76074;BME280;64776;42.636;24.358;2023-04-29T14:28:12;89869.72;;;15.09;34.45
76074;BME280;64776;42.636;24.358;2023-04-29T14:31:12;89861.94;;;15.05;34.41
76074;BME280;64776;42.636;24.358;2023-04-29T14:34:15;89857.09;;;15.04;34.41
76074;BME280;64776;42.636;24.358;2023-04-29T14:37:15;89873.19;;;14.80;34.83
76074;BME280;64776;42.636;24.358;2023-04-29T14:40:17;89880.25;;;14.29;35.58
76074;BME280;64776;42.636;24.358;2023-04-29T14:43:18;89871.38;;;14.39;35.68
76074;BME280;64776;42.636;24.358;2023-04-29T14:46:19;89875.97;;;14.44;35.84
76074;BME280;64776;42.636;24.358;2023-04-29T14:49:21;89871.47;;;14.28;35.54
76074;BME280;64776;42.636;24.358;2023-04-29T14:52:22;89880.91;;;14.05;36.56
76074;BME280;64776;42.636;24.358;2023-04-29T14:55:22;89880.44;;;14.01;35.76
76074;BME280;64776;42.636;24.358;2023-04-29T14:58:23;89875.38;;;13.92;36.30
76074;BME280;64776;42.636;24.358;2023-04-29T15:01:24;89878.56;;;13.85;36.61
76074;BME280;64776;42.636;24.358;2023-04-29T15:04:26;89883.75;;;13.77;36.87
76074;BME280;64776;42.636;24.358;2023-04-29T15:07:27;89875.75;;;13.72;37.16
76074;BME280;64776;42.636;24.358;2023-04-29T15:10:27;89878.75;;;13.52;38.43
76074;BME280;64776;42.636;24.358;2023-04-29T15:13:28;89884.13;;;13.52;37.96
76074;BME280;64776;42.636;24.358;2023-04-29T15:16:54;89886.78;;;13.57;38.37
76074;BME280;64776;42.636;24.358;2023-04-29T15:19:56;89880.97;;;13.48;38.35
76074;BME280;64776;42.636;24.358;2023-04-29T15:22:57;89880.69;;;13.57;38.43
76074;BME280;64776;42.636;24.358;2023-04-29T15:25:58;89885.88;;;13.49;38.03
76074;BME280;64776;42.636;24.358;2023-04-29T15:28:58;89882.94;;;13.47;38.65
76074;BME280;64776;42.636;24.358;2023-04-29T15:31:59;89883.88;;;13.50;38.68
76074;BME280;64776;42.636;24.358;2023-04-29T15:35:02;89879.81;;;13.43;38.09
76074;BME280;64776;42.636;24.358;2023-04-29T15:38:03;89876.19;;;13.35;37.88
76074;BME280;64776;42.636;24.358;2023-04-29T15:41:03;89886.63;;;13.39;40.00
76074;BME280;64776;42.636;24.358;2023-04-29T15:44:04;89887.22;;;13.21;38.42
76074;BME280;64776;42.636;24.358;2023-04-29T15:47:05;89881.41;;;12.94;39.29
76074;BME280;64776;42.636;24.358;2023-04-29T15:50:09;89885.28;;;13.16;39.58
76074;BME280;64776;42.636;24.358;2023-04-29T15:53:12;89881.41;;;13.05;38.86
76074;BME280;64776;42.636;24.358;2023-04-29T15:56:12;89882.91;;;12.90;39.58